createdAt,value
2022-12-11T00:02:09.932Z,14.02
2022-12-11T00:04:39.516Z,14.02
2022-12-11T00:07:09.234Z,13.99
2022-12-11T00:09:40.399Z,14.14
2022-12-11T00:12:10.612Z,14.00
2022-12-11T00:14:40.834Z,13.91
2022-12-11T00:17:10.777Z,13.95
2022-12-11T00:19:40.327Z,14.08
2022-12-11T00:22:09.861Z,14.15
2022-12-11T00:24:40.808Z,14.10
2022-12-11T00:27:10.322Z,14.08
2022-12-11T00:29:39.896Z,14.14
2022-12-11T00:32:09.540Z,14.31
2022-12-11T00:34:39.144Z,14.09
2022-12-11T00:37:08.912Z,14.08
2022-12-11T00:39:39.797Z,14.08
2022-12-11T00:42:10.982Z,14.06
2022-12-11T00:44:40.763Z,14.19
2022-12-11T00:47:10.561Z,14.13
2022-12-11T00:49:42.849Z,14.31
2022-12-11T00:52:14.677Z,14.34
2022-12-11T00:54:44.280Z,14.31
2022-12-11T00:57:15.317Z,14.18
2022-12-11T00:59:45.158Z,14.17
2022-12-11T01:02:15.023Z,14.16
2022-12-11T01:04:44.622Z,14.07
2022-12-11T01:07:14.134Z,14.13
2022-12-11T01:10:00.417Z,14.03
2022-12-11T01:12:32.065Z,14.27
2022-12-11T01:15:02.559Z,14.36
2022-12-11T01:17:32.759Z,14.34
2022-12-11T01:20:02.535Z,14.43
2022-12-11T01:22:32.365Z,14.53
2022-12-11T01:25:01.748Z,14.58
2022-12-11T01:27:32.909Z,14.48
2022-12-11T01:30:02.430Z,14.55
2022-12-11T01:32:32.164Z,14.50
2022-12-11T01:35:02.129Z,14.47
2022-12-11T01:37:31.801Z,14.74
2022-12-11T01:40:01.676Z,14.80
2022-12-11T01:42:32.687Z,14.73
2022-12-11T01:45:27.184Z,14.86
2022-12-11T01:48:00.954Z,14.76
2022-12-11T01:50:32.476Z,14.69
2022-12-11T01:53:02.170Z,14.71
2022-12-11T01:55:31.682Z,14.69
2022-12-11T01:58:03.623Z,14.66
2022-12-11T02:00:33.730Z,14.59
2022-12-11T02:03:03.253Z,14.61
2022-12-11T02:05:32.758Z,14.62
2022-12-11T02:08:03.412Z,14.70
2022-12-11T02:10:38.768Z,14.65
2022-12-11T02:13:14.078Z,14.64
2022-12-11T02:15:49.942Z,14.66
2022-12-11T02:18:26.631Z,14.60
2022-12-11T02:20:58.743Z,14.86
2022-12-11T02:23:45.926Z,14.89
2022-12-11T02:26:23.256Z,14.99
2022-12-11T02:28:56.525Z,14.87
2022-12-11T02:31:28.919Z,14.72
2022-12-11T02:34:02.348Z,14.90
2022-12-11T02:36:34.471Z,14.91
2022-12-11T02:39:05.592Z,14.90
2022-12-11T02:41:35.133Z,14.87
2022-12-11T02:44:07.377Z,14.92
2022-12-11T02:46:37.786Z,14.95
2022-12-11T02:49:08.190Z,15.06
2022-12-11T02:51:39.723Z,14.96
2022-12-11T02:54:13.457Z,15.03
2022-12-11T02:56:44.598Z,15.08
2022-12-11T02:59:17.340Z,15.03
2022-12-11T03:01:47.267Z,15.08
2022-12-11T03:04:17.199Z,15.13
2022-12-11T03:06:48.941Z,15.06
2022-12-11T03:09:18.540Z,15.02
2022-12-11T03:11:48.890Z,14.96
2022-12-11T03:14:20.569Z,14.99
2022-12-11T03:16:56.608Z,15.15
2022-12-11T03:19:30.184Z,15.01
2022-12-11T03:22:02.354Z,15.11
2022-12-11T03:24:35.972Z,15.07
2022-12-11T03:27:11.271Z,15.09
2022-12-11T03:29:47.652Z,15.05
2022-12-11T03:32:23.036Z,14.95
2022-12-11T03:34:58.216Z,14.98
2022-12-11T03:37:30.023Z,15.03
2022-12-11T03:40:04.077Z,14.94
2022-12-11T03:42:34.439Z,14.88
2022-12-11T03:45:06.491Z,14.87
2022-12-11T03:47:36.140Z,14.82
2022-12-11T03:50:07.561Z,14.97
2022-12-11T03:52:43.993Z,14.95
2022-12-11T03:55:17.277Z,14.92
2022-12-11T03:57:46.747Z,15.02
2022-12-11T04:00:19.488Z,14.97
2022-12-11T04:03:13.270Z,14.80
2022-12-11T04:05:44.000Z,14.89
2022-12-11T04:08:14.037Z,14.78
2022-12-11T04:10:43.685Z,14.85
2022-12-11T04:13:15.686Z,14.84
2022-12-11T04:15:46.161Z,14.79
2022-12-11T04:18:33.414Z,14.66
2022-12-11T04:21:19.969Z,14.74
2022-12-11T04:24:07.078Z,14.82
2022-12-11T04:26:36.584Z,14.72
2022-12-11T04:29:06.406Z,14.58
2022-12-11T04:31:37.638Z,14.65
2022-12-11T04:34:07.244Z,14.60
2022-12-11T04:36:37.022Z,14.53
2022-12-11T04:39:07.014Z,14.54
2022-12-11T04:41:37.230Z,14.53
2022-12-11T04:44:06.870Z,14.48
2022-12-11T04:46:37.982Z,14.61
2022-12-11T04:49:07.768Z,14.66
2022-12-11T04:51:37.514Z,14.75
2022-12-11T04:54:06.980Z,14.84
2022-12-11T04:56:36.733Z,14.79
2022-12-11T04:59:06.536Z,14.65
2022-12-11T05:01:37.455Z,14.63
2022-12-11T05:04:07.196Z,14.62
2022-12-11T05:06:36.767Z,14.72
2022-12-11T05:09:06.561Z,14.61
2022-12-11T05:11:37.376Z,14.62
2022-12-11T05:14:07.493Z,14.57
2022-12-11T05:16:38.806Z,14.50
2022-12-11T05:19:08.527Z,14.53
2022-12-11T05:21:38.083Z,14.50
2022-12-11T05:24:08.034Z,14.51
2022-12-11T05:26:37.613Z,14.45
2022-12-11T05:29:07.141Z,14.41
2022-12-11T05:31:38.087Z,14.52
2022-12-11T05:34:07.632Z,14.48
2022-12-11T05:36:37.178Z,14.42
2022-12-11T05:39:06.661Z,14.37
2022-12-11T05:41:36.288Z,14.45
2022-12-11T05:44:05.946Z,14.41
2022-12-11T05:46:35.873Z,14.43
2022-12-11T05:49:06.933Z,14.41
2022-12-11T05:51:36.457Z,14.36
2022-12-11T05:54:06.531Z,14.37
2022-12-11T05:56:36.356Z,14.50
2022-12-11T05:59:06.915Z,14.53
2022-12-11T06:01:38.232Z,14.46
2022-12-11T06:04:09.754Z,14.51
2022-12-11T06:06:40.463Z,14.47
2022-12-11T06:09:13.967Z,14.60
2022-12-11T06:11:46.810Z,14.54
2022-12-11T06:14:16.856Z,14.54
2022-12-11T06:16:47.064Z,14.47
2022-12-11T06:19:18.578Z,14.38
2022-12-11T06:21:48.943Z,14.40
2022-12-11T06:24:18.654Z,14.40
2022-12-11T06:26:48.215Z,14.40
2022-12-11T06:29:18.128Z,14.37
2022-12-11T06:31:47.849Z,14.41
2022-12-11T06:34:18.878Z,14.37
2022-12-11T06:36:48.254Z,14.47
2022-12-11T06:39:17.905Z,14.47
2022-12-11T06:41:47.909Z,14.42
2022-12-11T06:44:17.436Z,14.42
2022-12-11T06:46:48.333Z,14.41
2022-12-11T06:49:19.471Z,14.43
2022-12-11T06:51:48.981Z,14.51
2022-12-11T06:54:18.736Z,14.50
2022-12-11T06:56:48.265Z,14.46
2022-12-11T06:59:18.460Z,14.52
2022-12-11T07:01:48.262Z,14.67
2022-12-11T07:04:19.433Z,14.65
2022-12-11T07:06:49.305Z,14.78
2022-12-11T07:09:18.972Z,14.70
2022-12-11T07:11:50.629Z,14.84
2022-12-11T07:14:20.860Z,14.96
2022-12-11T07:16:50.910Z,15.00
2022-12-11T07:19:22.385Z,15.04
2022-12-11T07:21:52.537Z,15.08
2022-12-11T07:24:22.308Z,15.12
2022-12-11T07:26:52.858Z,15.09
2022-12-11T07:29:22.484Z,15.15
2022-12-11T07:31:52.133Z,15.08
2022-12-11T07:34:23.153Z,15.17
2022-12-11T07:36:52.826Z,15.38
2022-12-11T07:39:22.471Z,15.41
2022-12-11T07:41:52.012Z,15.37
2022-12-11T07:44:22.006Z,15.36
2022-12-11T07:46:51.523Z,15.38
2022-12-11T07:49:21.098Z,15.33
2022-12-11T07:51:51.994Z,15.30
2022-12-11T07:54:21.681Z,15.38
2022-12-11T07:56:53.753Z,15.37
2022-12-11T07:59:23.657Z,15.38
2022-12-11T08:01:53.284Z,15.39
2022-12-11T08:04:23.034Z,15.39
2022-12-11T08:06:54.132Z,15.37
2022-12-11T08:09:25.833Z,15.34
2022-12-11T08:11:57.426Z,15.26
2022-12-11T08:14:27.478Z,15.29
2022-12-11T08:16:58.165Z,15.31
2022-12-11T08:19:27.901Z,15.27
2022-12-11T08:21:58.877Z,15.35
2022-12-11T08:24:28.604Z,15.37
2022-12-11T08:26:58.270Z,15.31
2022-12-11T08:29:27.951Z,15.41
2022-12-11T08:31:57.464Z,15.47
2022-12-11T08:34:27.286Z,15.65
2022-12-11T08:36:58.576Z,15.70
2022-12-11T08:39:28.186Z,15.63
2022-12-11T08:41:58.756Z,15.57
2022-12-11T08:44:28.418Z,15.74
2022-12-11T08:46:57.957Z,15.81
2022-12-11T08:49:32.691Z,15.78
2022-12-11T08:52:06.088Z,15.88
2022-12-11T08:54:35.535Z,15.77
2022-12-11T08:57:05.246Z,15.86
2022-12-11T08:59:34.976Z,15.74
2022-12-11T09:02:04.510Z,15.68
2022-12-11T09:04:34.100Z,15.72
2022-12-11T09:07:04.970Z,15.57
2022-12-11T09:09:34.717Z,15.64
2022-12-11T09:12:05.061Z,15.76
2022-12-11T09:14:35.554Z,15.70
2022-12-11T09:17:06.489Z,15.71
2022-12-11T09:19:36.395Z,15.67
2022-12-11T09:22:09.810Z,15.68
2022-12-11T09:24:39.759Z,15.66
2022-12-11T09:27:09.613Z,15.75
2022-12-11T09:29:39.709Z,15.77
2022-12-11T09:32:09.233Z,15.70
2022-12-11T09:34:38.822Z,15.77
2022-12-11T09:37:09.750Z,15.67
2022-12-11T09:39:39.258Z,15.67
2022-12-11T09:42:15.142Z,15.65
2022-12-11T09:44:47.526Z,15.63
2022-12-11T09:47:28.676Z,15.72
2022-12-11T09:50:02.175Z,15.77
2022-12-11T09:52:37.453Z,15.72
2022-12-11T09:55:14.176Z,15.72
2022-12-11T09:57:47.399Z,15.77
2022-12-11T10:00:21.890Z,15.89
2022-12-11T10:03:00.172Z,16.01
2022-12-11T10:05:34.161Z,15.99
2022-12-11T10:08:10.192Z,15.99
2022-12-11T10:10:43.072Z,16.01
2022-12-11T10:13:27.416Z,15.95
2022-12-11T10:16:01.183Z,15.99
2022-12-11T10:18:31.537Z,15.96
2022-12-11T10:21:03.372Z,16.00
2022-12-11T10:23:37.338Z,15.93
2022-12-11T10:26:08.119Z,15.88
2022-12-11T10:28:37.796Z,15.91
2022-12-11T10:31:19.120Z,16.02
2022-12-11T10:33:55.541Z,16.02
2022-12-11T10:36:28.110Z,16.07
2022-12-11T10:38:59.488Z,16.01
2022-12-11T10:41:36.542Z,16.09
2022-12-11T10:44:16.040Z,16.13
2022-12-11T10:46:46.175Z,16.26
2022-12-11T10:49:23.406Z,16.23
2022-12-11T10:51:53.793Z,16.36
2022-12-11T10:54:33.547Z,16.49
2022-12-11T10:57:04.535Z,16.40
2022-12-11T10:59:37.699Z,16.37
2022-12-11T11:02:20.232Z,16.56
2022-12-11T11:04:50.504Z,16.49
2022-12-11T11:07:21.634Z,16.53
2022-12-11T11:09:54.392Z,16.67
2022-12-11T11:12:26.393Z,16.74
2022-12-11T11:15:00.333Z,16.76
2022-12-11T11:17:35.077Z,16.72
2022-12-11T11:20:08.091Z,16.80
2022-12-11T11:22:40.101Z,16.86
2022-12-11T11:25:18.287Z,16.96
2022-12-11T11:27:50.943Z,16.77
2022-12-11T11:30:22.518Z,16.79
2022-12-11T11:32:54.426Z,16.75
2022-12-11T11:35:26.642Z,16.78
2022-12-11T11:38:01.019Z,16.77
2022-12-11T11:40:34.318Z,16.89
2022-12-11T11:43:08.451Z,16.86
2022-12-11T11:45:42.149Z,16.93
2022-12-11T11:48:19.685Z,17.00
2022-12-11T11:50:50.603Z,17.04
2022-12-11T11:53:22.340Z,16.92
2022-12-11T11:55:59.801Z,17.02
2022-12-11T11:58:36.235Z,17.10
2022-12-11T12:01:06.218Z,16.95
2022-12-11T12:03:36.976Z,16.85
2022-12-11T12:06:15.127Z,16.83
2022-12-11T12:08:47.681Z,16.73
2022-12-11T12:11:23.708Z,16.70
2022-12-11T12:13:59.970Z,16.72
2022-12-11T12:19:33.787Z,16.75
2022-12-11T12:22:10.777Z,16.84
2022-12-11T12:24:44.597Z,16.62
2022-12-11T12:27:50.469Z,16.81
2022-12-11T12:30:16.148Z,16.79
2022-12-11T12:32:54.581Z,16.75
2022-12-11T12:35:31.419Z,16.71
2022-12-11T12:38:06.899Z,16.64
2022-12-11T12:40:40.964Z,16.47
2022-12-11T12:43:22.853Z,16.45
2022-12-11T12:45:55.322Z,16.34
2022-12-11T12:48:25.631Z,16.33
2022-12-11T12:50:56.130Z,16.29
2022-12-11T12:53:28.040Z,16.34
2022-12-11T12:55:57.757Z,16.25
2022-12-11T12:58:32.015Z,16.24
2022-12-11T13:01:09.407Z,16.27
2022-12-11T13:03:51.166Z,16.21
2022-12-11T13:06:29.561Z,16.16
2022-12-11T13:08:59.554Z,16.28
2022-12-11T13:11:33.202Z,16.39
2022-12-11T13:14:06.368Z,16.26
2022-12-11T13:16:37.915Z,16.25
2022-12-11T13:19:17.913Z,16.25
2022-12-11T13:21:56.061Z,16.15
2022-12-11T13:24:27.571Z,16.07
2022-12-11T13:26:57.568Z,15.95
2022-12-11T13:29:32.964Z,15.95
2022-12-11T13:32:04.359Z,15.97
2022-12-11T13:34:34.610Z,15.92
2022-12-11T13:37:05.085Z,15.76
2022-12-11T13:39:36.278Z,15.65
2022-12-11T13:42:10.831Z,15.66
2022-12-11T13:44:48.695Z,15.80
2022-12-11T13:47:19.762Z,15.64
2022-12-11T13:49:51.604Z,15.71
2022-12-11T13:52:25.771Z,15.64
2022-12-11T13:54:56.439Z,15.60
2022-12-11T13:57:26.813Z,15.54
2022-12-11T13:59:59.518Z,15.55
2022-12-11T14:02:31.149Z,15.59
2022-12-11T14:05:01.961Z,15.46
2022-12-11T14:07:34.765Z,15.50
2022-12-11T14:10:08.140Z,15.64
2022-12-11T14:12:38.473Z,15.48
2022-12-11T14:15:14.141Z,15.49
2022-12-11T14:17:50.034Z,15.45
2022-12-11T14:20:22.750Z,15.46
2022-12-11T14:22:52.639Z,15.29
2022-12-11T14:25:24.863Z,15.28
2022-12-11T14:27:55.283Z,15.26
2022-12-11T14:30:28.891Z,15.19
2022-12-11T14:32:59.528Z,15.19
2022-12-11T14:35:35.528Z,15.15
2022-12-11T14:38:12.463Z,15.06
2022-12-11T14:40:44.631Z,15.08
2022-12-11T14:43:16.549Z,15.01
2022-12-11T14:45:50.105Z,14.96
2022-12-11T14:48:22.251Z,15.07
2022-12-11T14:50:53.205Z,15.01
2022-12-11T14:53:24.378Z,14.91
2022-12-11T14:55:54.271Z,14.86
2022-12-11T14:58:24.987Z,14.85
2022-12-11T15:00:59.984Z,14.77
2022-12-11T15:03:32.307Z,14.86
2022-12-11T15:06:02.442Z,14.79
2022-12-11T15:08:33.266Z,14.76
2022-12-11T15:11:07.710Z,14.70
2022-12-11T15:13:38.972Z,14.66
2022-12-11T15:16:11.121Z,14.66
2022-12-11T15:18:42.142Z,14.54
2022-12-11T15:21:13.659Z,14.48
2022-12-11T15:23:50.763Z,14.45
2022-12-11T15:26:20.619Z,14.39
2022-12-11T15:29:00.187Z,14.40
2022-12-11T15:31:32.345Z,14.41
2022-12-11T15:34:02.317Z,14.38
2022-12-11T15:36:33.293Z,14.43
2022-12-11T15:39:03.349Z,14.42
2022-12-11T15:41:34.759Z,14.46
2022-12-11T15:44:05.320Z,14.40
2022-12-11T15:46:37.904Z,14.35
2022-12-11T15:49:13.475Z,14.30
2022-12-11T15:51:43.571Z,14.32
2022-12-11T15:54:13.321Z,14.34
2022-12-11T15:56:42.799Z,14.30
2022-12-11T15:59:12.923Z,14.27
2022-12-11T16:01:44.456Z,14.27
2022-12-11T16:04:14.267Z,14.23
2022-12-11T16:06:46.374Z,14.31
2022-12-11T16:09:16.035Z,14.31
2022-12-11T16:11:46.329Z,14.27
2022-12-11T16:14:16.298Z,14.23
2022-12-11T16:16:48.102Z,14.24
2022-12-11T16:19:17.638Z,14.22
2022-12-11T16:21:47.270Z,14.23
2022-12-11T16:24:17.018Z,14.19
2022-12-11T16:26:46.767Z,14.19
2022-12-11T16:29:16.531Z,14.31
2022-12-11T16:31:46.317Z,14.25
2022-12-11T16:34:17.447Z,14.21
2022-12-11T16:36:47.007Z,14.19
2022-12-11T16:39:16.563Z,14.22
2022-12-11T16:41:46.106Z,14.20
2022-12-11T16:44:19.959Z,14.20
2022-12-11T16:46:49.969Z,14.16
2022-12-11T16:49:21.230Z,14.07
2022-12-11T16:51:50.770Z,14.10
2022-12-11T16:54:20.446Z,14.06
2022-12-11T16:56:50.025Z,14.10
2022-12-11T16:59:20.946Z,14.07
2022-12-11T17:01:51.281Z,13.99
2022-12-11T17:04:22.462Z,13.98
2022-12-11T17:06:52.431Z,13.95
2022-12-11T17:09:22.358Z,13.89
2022-12-11T17:11:52.822Z,13.86
2022-12-11T17:14:23.029Z,13.84
2022-12-11T17:16:53.617Z,13.79
2022-12-11T17:19:24.574Z,13.74
2022-12-11T17:21:55.617Z,13.69
2022-12-11T17:24:25.663Z,13.64
2022-12-11T17:26:55.855Z,13.64
2022-12-11T17:29:25.721Z,13.63
2022-12-11T17:31:55.315Z,13.58
2022-12-11T17:34:26.481Z,13.56
2022-12-11T17:36:56.079Z,13.58
2022-12-11T17:39:25.669Z,13.54
2022-12-11T17:41:55.386Z,13.63
2022-12-11T17:44:26.776Z,13.54
2022-12-11T17:46:56.608Z,13.47
2022-12-11T17:49:27.881Z,13.47
2022-12-11T17:51:57.688Z,13.45
2022-12-11T17:54:27.168Z,13.46
2022-12-11T17:56:56.861Z,13.45
2022-12-11T17:59:26.409Z,13.46
2022-12-11T18:01:56.168Z,13.45
2022-12-11T18:04:27.187Z,13.48
2022-12-11T18:06:56.722Z,13.51
2022-12-11T18:09:26.233Z,13.52
2022-12-11T18:11:56.372Z,13.53
2022-12-11T18:14:26.361Z,13.52
2022-12-11T18:16:56.820Z,13.50
2022-12-11T18:19:28.003Z,13.49
2022-12-11T18:21:57.816Z,13.45
2022-12-11T18:24:31.780Z,13.42
2022-12-11T18:27:01.619Z,13.38
2022-12-11T18:29:31.376Z,13.38
2022-12-11T18:32:03.664Z,13.33
2022-12-11T18:34:34.908Z,13.33
2022-12-11T18:37:04.525Z,13.33
2022-12-11T18:39:34.317Z,13.32
2022-12-11T18:42:31.797Z,13.29
2022-12-11T18:44:53.626Z,13.29
2022-12-11T18:47:23.129Z,13.27
2022-12-11T18:49:54.120Z,13.28
2022-12-11T18:52:23.689Z,13.27
2022-12-11T18:54:53.309Z,13.28
2022-12-11T18:57:23.122Z,13.23
2022-12-11T18:59:53.141Z,13.21
2022-12-11T19:02:23.339Z,13.27
2022-12-11T19:04:54.237Z,13.19
2022-12-11T19:07:23.787Z,13.16
2022-12-11T19:09:53.377Z,13.11
2022-12-11T19:12:23.725Z,13.11
2022-12-11T19:14:54.491Z,13.04
2022-12-11T19:17:24.801Z,12.99
2022-12-11T19:19:55.816Z,12.95
2022-12-11T19:22:25.362Z,12.97
2022-12-11T19:24:54.871Z,12.85
2022-12-11T19:27:24.462Z,12.80
2022-12-11T19:29:54.522Z,12.69
2022-12-11T19:32:24.076Z,12.58
2022-12-11T19:34:55.482Z,12.54
2022-12-11T19:37:25.264Z,12.47
2022-12-11T19:39:55.042Z,12.46
2022-12-11T19:42:24.704Z,12.36
2022-12-11T19:44:54.412Z,12.31
2022-12-11T19:47:24.196Z,12.23
2022-12-11T19:49:56.570Z,12.16
2022-12-11T19:52:26.226Z,12.11
2022-12-11T19:54:55.738Z,12.07
2022-12-11T19:57:27.169Z,12.01
2022-12-11T19:59:57.487Z,11.99
2022-12-11T20:02:27.375Z,11.93
2022-12-11T20:04:58.356Z,11.87
2022-12-11T20:07:30.775Z,11.88
2022-12-11T20:10:01.261Z,11.86
2022-12-11T20:12:31.602Z,11.83
2022-12-11T20:15:01.992Z,11.85
2022-12-11T20:17:33.472Z,11.82
2022-12-11T20:20:04.810Z,11.83
2022-12-11T20:22:34.982Z,11.81
2022-12-11T20:25:04.573Z,11.82
2022-12-11T20:27:34.711Z,11.82
2022-12-11T20:30:05.671Z,11.79
2022-12-11T20:32:36.961Z,11.81
2022-12-11T20:35:08.534Z,11.81
2022-12-11T20:37:38.070Z,11.83
2022-12-11T20:40:08.432Z,11.83
2022-12-11T20:42:38.082Z,11.88
2022-12-11T20:45:08.750Z,11.83
2022-12-11T20:47:38.345Z,11.85
2022-12-11T20:50:11.169Z,11.87
2022-12-11T20:52:40.796Z,11.89
2022-12-11T20:55:11.014Z,11.83
2022-12-11T20:57:45.081Z,11.82
2022-12-11T21:00:17.565Z,11.86
2022-12-11T21:02:47.531Z,11.89
2022-12-11T21:05:19.006Z,11.89
2022-12-11T21:07:48.751Z,11.83
2022-12-11T21:10:18.518Z,11.83
2022-12-11T21:12:48.831Z,11.83
2022-12-11T21:15:19.706Z,11.82
2022-12-11T21:17:49.367Z,11.81
2022-12-11T21:20:21.271Z,11.85
2022-12-11T21:22:50.829Z,11.91
2022-12-11T21:25:20.519Z,11.89
2022-12-11T21:27:50.303Z,11.84
2022-12-11T21:30:20.511Z,11.83
2022-12-11T21:32:50.076Z,11.84
2022-12-11T21:35:21.794Z,11.85
2022-12-11T21:37:51.352Z,11.86
2022-12-11T21:40:21.032Z,11.86
2022-12-11T21:42:50.630Z,11.84
2022-12-11T21:48:09.971Z,11.85
2022-12-11T21:50:41.357Z,11.82
2022-12-11T21:53:10.945Z,11.84
2022-12-11T21:55:41.276Z,11.82
2022-12-11T21:58:11.087Z,11.82
2022-12-11T22:00:40.950Z,11.86
2022-12-11T22:03:10.557Z,11.81
2022-12-11T22:05:41.424Z,11.87
2022-12-11T22:08:10.990Z,11.87
2022-12-11T22:10:40.744Z,11.84
2022-12-11T22:13:10.977Z,11.80
2022-12-11T22:15:41.231Z,11.77
2022-12-11T22:18:10.830Z,11.75
2022-12-11T22:20:41.749Z,11.68
2022-12-11T22:23:11.326Z,11.66
2022-12-11T22:25:40.948Z,11.50
2022-12-11T22:28:10.489Z,11.50
2022-12-11T22:30:40.549Z,11.44
2022-12-11T22:33:10.158Z,11.15
2022-12-11T22:35:41.100Z,11.06
2022-12-11T22:38:10.597Z,11.10
2022-12-11T22:40:41.291Z,10.98
2022-12-11T22:43:10.819Z,10.93
2022-12-11T22:45:40.947Z,10.87
2022-12-11T22:48:10.920Z,10.75
2022-12-11T22:50:42.727Z,10.68
2022-12-11T22:53:12.388Z,10.58
2022-12-11T22:55:41.901Z,10.51
2022-12-11T22:58:11.399Z,10.47
2022-12-11T23:00:41.102Z,10.45
2022-12-11T23:03:10.740Z,10.45
2022-12-11T23:05:43.284Z,10.43
2022-12-11T23:08:12.898Z,10.30
2022-12-11T23:10:42.781Z,10.33
2022-12-11T23:13:12.806Z,10.20
2022-12-11T23:15:42.910Z,10.24
2022-12-11T23:18:12.580Z,10.35
2022-12-11T23:20:44.222Z,10.25
2022-12-11T23:23:13.757Z,10.22
2022-12-11T23:25:43.295Z,10.04
2022-12-11T23:28:12.827Z,10.07
2022-12-11T23:30:42.784Z,9.92
2022-12-11T23:33:12.405Z,10.06
2022-12-11T23:35:43.369Z,9.91
2022-12-11T23:38:13.342Z,9.73
2022-12-11T23:40:42.950Z,9.74
2022-12-11T23:43:12.674Z,9.74
2022-12-11T23:45:44.399Z,9.72
2022-12-11T23:48:14.392Z,9.64
2022-12-11T23:50:45.657Z,9.53
2022-12-11T23:53:15.359Z,9.32
2022-12-11T23:55:45.982Z,9.40
2022-12-11T23:58:15.488Z,9.51
